sensor_id;sensor_type;location;lat;lon;timestamp;temperature;humidity
43183;DHT22;28802;38.578;-0.066;2023-03-21T00:02:20;13.20;99.90
43183;DHT22;28802;38.578;-0.066;2023-03-21T00:04:48;13.20;99.90
43183;DHT22;28802;38.578;-0.066;2023-03-21T00:07:15;13.20;99.90
43183;DHT22;28802;38.578;-0.066;2023-03-21T00:09:41;13.30;99.90
43183;DHT22;28802;38.578;-0.066;2023-03-21T00:12:06;13.30;99.90
43183;DHT22;28802;38.578;-0.066;2023-03-21T00:14:34;13.30;99.90
43183;DHT22;28802;38.578;-0.066;2023-03-21T00:17:03;13.30;99.90
43183;DHT22;28802;38.578;-0.066;2023-03-21T00:19:29;13.20;99.90
43183;DHT22;28802;38.578;-0.066;2023-03-21T00:21:55;13.20;99.90
43183;DHT22;28802;38.578;-0.066;2023-03-21T00:24:22;13.20;99.90
43183;DHT22;28802;38.578;-0.066;2023-03-21T00:26:49;13.10;99.90
43183;DHT22;28802;38.578;-0.066;2023-03-21T00:29:15;13.10;99.90
43183;DHT22;28802;38.578;-0.066;2023-03-21T00:31:45;13.10;99.90
43183;DHT22;28802;38.578;-0.066;2023-03-21T00:34:11;13.00;99.90
43183;DHT22;28802;38.578;-0.066;2023-03-21T00:36:37;13.00;99.90
43183;DHT22;28802;38.578;-0.066;2023-03-21T00:39:06;13.00;99.90
43183;DHT22;28802;38.578;-0.066;2023-03-21T00:41:32;12.90;99.90
43183;DHT22;28802;38.578;-0.066;2023-03-21T00:43:58;13.00;99.90
43183;DHT22;28802;38.578;-0.066;2023-03-21T00:46:24;13.00;99.90
43183;DHT22;28802;38.578;-0.066;2023-03-21T00:48:49;13.00;99.90
43183;DHT22;28802;38.578;-0.066;2023-03-21T00:51:20;13.00;99.90
43183;DHT22;28802;38.578;-0.066;2023-03-21T00:53:54;13.00;99.90
43183;DHT22;28802;38.578;-0.066;2023-03-21T00:56:21;13.00;99.90
43183;DHT22;28802;38.578;-0.066;2023-03-21T00:58:47;13.00;99.90
43183;DHT22;28802;38.578;-0.066;2023-03-21T01:01:15;13.00;99.90
43183;DHT22;28802;38.578;-0.066;2023-03-21T01:03:41;13.00;99.90
43183;DHT22;28802;38.578;-0.066;2023-03-21T01:06:17;12.90;99.90
43183;DHT22;28802;38.578;-0.066;2023-03-21T01:08:44;12.90;99.90
43183;DHT22;28802;38.578;-0.066;2023-03-21T01:11:14;12.90;99.90
43183;DHT22;28802;38.578;-0.066;2023-03-21T01:13:43;12.80;99.90
43183;DHT22;28802;38.578;-0.066;2023-03-21T01:16:10;12.70;99.90
43183;DHT22;28802;38.578;-0.066;2023-03-21T01:18:38;12.60;99.90
43183;DHT22;28802;38.578;-0.066;2023-03-21T01:21:08;12.70;99.90
43183;DHT22;28802;38.578;-0.066;2023-03-21T01:23:39;12.80;99.90
43183;DHT22;28802;38.578;-0.066;2023-03-21T01:26:06;12.80;99.90
43183;DHT22;28802;38.578;-0.066;2023-03-21T01:28:32;12.90;99.90
43183;DHT22;28802;38.578;-0.066;2023-03-21T01:31:00;13.00;99.90
43183;DHT22;28802;38.578;-0.066;2023-03-21T01:33:27;13.10;99.90
43183;DHT22;28802;38.578;-0.066;2023-03-21T01:35:53;13.20;99.90
43183;DHT22;28802;38.578;-0.066;2023-03-21T01:38:20;13.20;99.90
43183;DHT22;28802;38.578;-0.066;2023-03-21T01:40:48;13.30;99.90
43183;DHT22;28802;38.578;-0.066;2023-03-21T01:43:29;13.30;99.90
43183;DHT22;28802;38.578;-0.066;2023-03-21T01:46:11;13.40;99.90
43183;DHT22;28802;38.578;-0.066;2023-03-21T01:49:31;13.40;99.90
43183;DHT22;28802;38.578;-0.066;2023-03-21T01:52:23;13.40;99.90
43183;DHT22;28802;38.578;-0.066;2023-03-21T01:54:53;13.50;99.90
43183;DHT22;28802;38.578;-0.066;2023-03-21T01:57:24;13.50;99.90
43183;DHT22;28802;38.578;-0.066;2023-03-21T01:59:58;13.50;99.90
43183;DHT22;28802;38.578;-0.066;2023-03-21T02:02:55;13.40;99.90
43183;DHT22;28802;38.578;-0.066;2023-03-21T02:05:55;13.40;99.90
43183;DHT22;28802;38.578;-0.066;2023-03-21T02:08:27;13.40;99.90
43183;DHT22;28802;38.578;-0.066;2023-03-21T02:10:53;13.50;99.90
43183;DHT22;28802;38.578;-0.066;2023-03-21T02:13:31;13.50;99.90
43183;DHT22;28802;38.578;-0.066;2023-03-21T02:16:01;13.40;99.90
43183;DHT22;28802;38.578;-0.066;2023-03-21T02:21:45;13.60;99.90
43183;DHT22;28802;38.578;-0.066;2023-03-21T02:35:22;13.50;99.90
43183;DHT22;28802;38.578;-0.066;2023-03-21T02:37:57;13.50;99.90
43183;DHT22;28802;38.578;-0.066;2023-03-21T02:40:41;13.60;99.90
43183;DHT22;28802;38.578;-0.066;2023-03-21T02:43:34;13.50;99.90
43183;DHT22;28802;38.578;-0.066;2023-03-21T02:46:21;13.50;99.90
43183;DHT22;28802;38.578;-0.066;2023-03-21T02:49:00;13.60;99.90
43183;DHT22;28802;38.578;-0.066;2023-03-21T02:51:30;13.40;99.90
43183;DHT22;28802;38.578;-0.066;2023-03-21T02:54:04;13.30;99.90
43183;DHT22;28802;38.578;-0.066;2023-03-21T02:56:35;13.30;99.90
43183;DHT22;28802;38.578;-0.066;2023-03-21T02:59:03;13.30;99.90
43183;DHT22;28802;38.578;-0.066;2023-03-21T03:01:30;13.30;99.90
43183;DHT22;28802;38.578;-0.066;2023-03-21T03:03:57;13.30;99.90
43183;DHT22;28802;38.578;-0.066;2023-03-21T03:06:28;13.40;99.90
43183;DHT22;28802;38.578;-0.066;2023-03-21T03:11:43;13.30;99.90
43183;DHT22;28802;38.578;-0.066;2023-03-21T03:19:53;13.60;99.90
43183;DHT22;28802;38.578;-0.066;2023-03-21T03:22:27;13.60;99.90
43183;DHT22;28802;38.578;-0.066;2023-03-21T03:25:04;13.70;99.90
43183;DHT22;28802;38.578;-0.066;2023-03-21T03:27:36;13.70;99.90
43183;DHT22;28802;38.578;-0.066;2023-03-21T03:30:07;13.80;99.90
43183;DHT22;28802;38.578;-0.066;2023-03-21T03:32:41;13.80;99.90
43183;DHT22;28802;38.578;-0.066;2023-03-21T03:35:12;13.80;99.90
43183;DHT22;28802;38.578;-0.066;2023-03-21T03:37:40;13.70;99.90
43183;DHT22;28802;38.578;-0.066;2023-03-21T03:40:40;13.60;99.90
43183;DHT22;28802;38.578;-0.066;2023-03-21T03:43:39;13.50;99.90
43183;DHT22;28802;38.578;-0.066;2023-03-21T03:46:18;13.60;99.90
43183;DHT22;28802;38.578;-0.066;2023-03-21T03:49:07;13.60;99.90
43183;DHT22;28802;38.578;-0.066;2023-03-21T03:54:46;13.80;99.90
43183;DHT22;28802;38.578;-0.066;2023-03-21T03:57:13;13.80;99.90
43183;DHT22;28802;38.578;-0.066;2023-03-21T03:59:44;13.80;99.90
43183;DHT22;28802;38.578;-0.066;2023-03-21T04:02:19;13.80;99.90
43183;DHT22;28802;38.578;-0.066;2023-03-21T04:04:46;13.80;99.90
43183;DHT22;28802;38.578;-0.066;2023-03-21T04:07:13;13.80;99.90
43183;DHT22;28802;38.578;-0.066;2023-03-21T04:09:39;13.80;99.90
43183;DHT22;28802;38.578;-0.066;2023-03-21T04:12:07;13.90;99.90
43183;DHT22;28802;38.578;-0.066;2023-03-21T04:14:34;13.90;99.90
43183;DHT22;28802;38.578;-0.066;2023-03-21T04:17:03;14.00;99.90
43183;DHT22;28802;38.578;-0.066;2023-03-21T04:19:30;14.00;99.90
43183;DHT22;28802;38.578;-0.066;2023-03-21T04:21:57;13.90;99.90
43183;DHT22;28802;38.578;-0.066;2023-03-21T04:24:23;13.90;99.90
43183;DHT22;28802;38.578;-0.066;2023-03-21T04:26:49;13.90;99.90
43183;DHT22;28802;38.578;-0.066;2023-03-21T04:29:47;13.80;99.90
43183;DHT22;28802;38.578;-0.066;2023-03-21T04:32:37;13.70;99.90
43183;DHT22;28802;38.578;-0.066;2023-03-21T04:35:11;13.50;99.90
43183;DHT22;28802;38.578;-0.066;2023-03-21T04:37:37;13.40;99.90
43183;DHT22;28802;38.578;-0.066;2023-03-21T04:40:05;13.20;99.90
43183;DHT22;28802;38.578;-0.066;2023-03-21T04:42:33;13.20;99.90
43183;DHT22;28802;38.578;-0.066;2023-03-21T04:45:00;13.10;99.90
43183;DHT22;28802;38.578;-0.066;2023-03-21T04:47:26;13.00;99.90
43183;DHT22;28802;38.578;-0.066;2023-03-21T04:49:54;13.00;99.90
43183;DHT22;28802;38.578;-0.066;2023-03-21T04:52:22;12.80;99.90
43183;DHT22;28802;38.578;-0.066;2023-03-21T04:54:48;12.80;99.90
43183;DHT22;28802;38.578;-0.066;2023-03-21T04:57:14;12.70;99.90
43183;DHT22;28802;38.578;-0.066;2023-03-21T04:59:42;12.60;99.90
43183;DHT22;28802;38.578;-0.066;2023-03-21T05:02:08;12.50;99.90
43183;DHT22;28802;38.578;-0.066;2023-03-21T05:04:34;12.50;99.90
43183;DHT22;28802;38.578;-0.066;2023-03-21T05:07:00;12.50;99.90
43183;DHT22;28802;38.578;-0.066;2023-03-21T05:09:26;12.50;99.90
43183;DHT22;28802;38.578;-0.066;2023-03-21T05:11:52;12.40;99.90
43183;DHT22;28802;38.578;-0.066;2023-03-21T05:14:24;12.40;99.90
43183;DHT22;28802;38.578;-0.066;2023-03-21T05:16:51;12.50;99.90
43183;DHT22;28802;38.578;-0.066;2023-03-21T05:19:28;12.50;99.90
43183;DHT22;28802;38.578;-0.066;2023-03-21T05:22:06;12.50;99.90
43183;DHT22;28802;38.578;-0.066;2023-03-21T05:24:34;12.40;99.90
43183;DHT22;28802;38.578;-0.066;2023-03-21T05:27:05;12.40;99.90
43183;DHT22;28802;38.578;-0.066;2023-03-21T05:29:38;12.30;99.90
43183;DHT22;28802;38.578;-0.066;2023-03-21T05:32:06;12.30;99.90
43183;DHT22;28802;38.578;-0.066;2023-03-21T05:34:32;12.20;99.90
43183;DHT22;28802;38.578;-0.066;2023-03-21T05:36:59;12.20;99.90
43183;DHT22;28802;38.578;-0.066;2023-03-21T05:39:35;12.10;99.90
43183;DHT22;28802;38.578;-0.066;2023-03-21T05:42:07;12.00;99.90
43183;DHT22;28802;38.578;-0.066;2023-03-21T05:44:33;12.00;99.90
43183;DHT22;28802;38.578;-0.066;2023-03-21T05:47:01;12.00;99.90
43183;DHT22;28802;38.578;-0.066;2023-03-21T05:49:37;11.90;99.90
43183;DHT22;28802;38.578;-0.066;2023-03-21T05:52:04;11.90;99.90
43183;DHT22;28802;38.578;-0.066;2023-03-21T05:54:30;11.90;99.90
43183;DHT22;28802;38.578;-0.066;2023-03-21T05:56:56;11.90;99.90
43183;DHT22;28802;38.578;-0.066;2023-03-21T05:59:35;11.90;99.90
43183;DHT22;28802;38.578;-0.066;2023-03-21T06:02:02;12.00;99.90
43183;DHT22;28802;38.578;-0.066;2023-03-21T06:04:28;11.90;99.90
43183;DHT22;28802;38.578;-0.066;2023-03-21T06:06:55;11.90;99.90
43183;DHT22;28802;38.578;-0.066;2023-03-21T06:09:22;11.90;99.90
43183;DHT22;28802;38.578;-0.066;2023-03-21T06:11:54;11.80;99.90
43183;DHT22;28802;38.578;-0.066;2023-03-21T06:14:50;11.80;99.90
43183;DHT22;28802;38.578;-0.066;2023-03-21T06:17:21;11.80;99.90
43183;DHT22;28802;38.578;-0.066;2023-03-21T06:19:55;11.80;99.90
43183;DHT22;28802;38.578;-0.066;2023-03-21T06:22:35;12.00;99.90
43183;DHT22;28802;38.578;-0.066;2023-03-21T06:25:03;12.30;99.90
43183;DHT22;28802;38.578;-0.066;2023-03-21T06:27:30;12.50;99.90
43183;DHT22;28802;38.578;-0.066;2023-03-21T06:29:56;12.70;99.90
43183;DHT22;28802;38.578;-0.066;2023-03-21T06:32:26;12.90;99.90
43183;DHT22;28802;38.578;-0.066;2023-03-21T06:34:57;13.30;99.90
43183;DHT22;28802;38.578;-0.066;2023-03-21T06:37:23;13.60;99.90
43183;DHT22;28802;38.578;-0.066;2023-03-21T06:39:51;14.00;99.90
43183;DHT22;28802;38.578;-0.066;2023-03-21T06:42:19;14.30;99.90
43183;DHT22;28802;38.578;-0.066;2023-03-21T06:44:46;14.30;99.90
43183;DHT22;28802;38.578;-0.066;2023-03-21T06:47:13;14.40;99.90
43183;DHT22;28802;38.578;-0.066;2023-03-21T06:49:41;14.50;99.90
43183;DHT22;28802;38.578;-0.066;2023-03-21T06:52:10;14.70;99.90
43183;DHT22;28802;38.578;-0.066;2023-03-21T06:54:37;15.00;99.90
43183;DHT22;28802;38.578;-0.066;2023-03-21T06:57:09;15.60;99.90
43183;DHT22;28802;38.578;-0.066;2023-03-21T06:59:37;15.80;99.90
43183;DHT22;28802;38.578;-0.066;2023-03-21T07:02:13;16.60;99.90
43183;DHT22;28802;38.578;-0.066;2023-03-21T07:05:06;17.00;99.90
43183;DHT22;28802;38.578;-0.066;2023-03-21T07:07:32;17.10;99.90
43183;DHT22;28802;38.578;-0.066;2023-03-21T07:09:58;16.70;99.90
43183;DHT22;28802;38.578;-0.066;2023-03-21T07:12:28;16.80;99.90
43183;DHT22;28802;38.578;-0.066;2023-03-21T07:15:13;17.20;99.90
43183;DHT22;28802;38.578;-0.066;2023-03-21T07:17:41;17.10;99.90
43183;DHT22;28802;38.578;-0.066;2023-03-21T07:20:07;16.90;99.90
43183;DHT22;28802;38.578;-0.066;2023-03-21T07:22:34;17.30;99.90
43183;DHT22;28802;38.578;-0.066;2023-03-21T07:25:00;18.00;99.90
43183;DHT22;28802;38.578;-0.066;2023-03-21T07:27:26;18.60;99.90
43183;DHT22;28802;38.578;-0.066;2023-03-21T07:29:52;18.90;99.90
43183;DHT22;28802;38.578;-0.066;2023-03-21T07:32:18;19.00;99.90
43183;DHT22;28802;38.578;-0.066;2023-03-21T07:34:44;19.10;99.90
43183;DHT22;28802;38.578;-0.066;2023-03-21T07:37:10;19.50;99.90
43183;DHT22;28802;38.578;-0.066;2023-03-21T07:39:36;19.70;99.90
43183;DHT22;28802;38.578;-0.066;2023-03-21T07:42:03;19.80;99.90
43183;DHT22;28802;38.578;-0.066;2023-03-21T07:44:35;19.10;99.90
43183;DHT22;28802;38.578;-0.066;2023-03-21T07:47:03;19.00;99.90
43183;DHT22;28802;38.578;-0.066;2023-03-21T07:49:29;19.80;99.90
43183;DHT22;28802;38.578;-0.066;2023-03-21T07:51:55;19.70;99.90
43183;DHT22;28802;38.578;-0.066;2023-03-21T07:54:21;19.80;99.90
43183;DHT22;28802;38.578;-0.066;2023-03-21T07:56:48;20.00;99.90
43183;DHT22;28802;38.578;-0.066;2023-03-21T07:59:14;20.10;99.90
43183;DHT22;28802;38.578;-0.066;2023-03-21T08:01:40;20.40;99.90
43183;DHT22;28802;38.578;-0.066;2023-03-21T08:04:06;20.70;99.90
43183;DHT22;28802;38.578;-0.066;2023-03-21T08:06:33;20.60;99.90
43183;DHT22;28802;38.578;-0.066;2023-03-21T08:08:58;20.40;99.90
43183;DHT22;28802;38.578;-0.066;2023-03-21T08:11:27;19.10;99.90
43183;DHT22;28802;38.578;-0.066;2023-03-21T08:13:56;17.90;99.90
43183;DHT22;28802;38.578;-0.066;2023-03-21T08:16:23;17.40;99.90
43183;DHT22;28802;38.578;-0.066;2023-03-21T08:18:49;17.10;99.90
43183;DHT22;28802;38.578;-0.066;2023-03-21T08:21:15;17.50;99.90
43183;DHT22;28802;38.578;-0.066;2023-03-21T08:23:41;18.30;99.90
43183;DHT22;28802;38.578;-0.066;2023-03-21T08:26:07;19.10;99.90
43183;DHT22;28802;38.578;-0.066;2023-03-21T08:28:34;19.60;99.90
43183;DHT22;28802;38.578;-0.066;2023-03-21T08:31:06;19.70;99.90
43183;DHT22;28802;38.578;-0.066;2023-03-21T08:33:32;20.10;99.90
43183;DHT22;28802;38.578;-0.066;2023-03-21T08:35:59;19.90;99.90
43183;DHT22;28802;38.578;-0.066;2023-03-21T08:38:26;19.50;99.90
43183;DHT22;28802;38.578;-0.066;2023-03-21T08:40:55;18.90;99.90
43183;DHT22;28802;38.578;-0.066;2023-03-21T08:43:22;18.60;99.90
43183;DHT22;28802;38.578;-0.066;2023-03-21T08:45:48;18.80;99.90
43183;DHT22;28802;38.578;-0.066;2023-03-21T08:48:14;18.80;99.90
43183;DHT22;28802;38.578;-0.066;2023-03-21T08:50:40;19.50;99.90
43183;DHT22;28802;38.578;-0.066;2023-03-21T08:53:06;19.60;99.90
43183;DHT22;28802;38.578;-0.066;2023-03-21T08:55:32;19.70;99.90
43183;DHT22;28802;38.578;-0.066;2023-03-21T08:57:59;19.00;99.90
43183;DHT22;28802;38.578;-0.066;2023-03-21T09:00:25;18.20;99.90
43183;DHT22;28802;38.578;-0.066;2023-03-21T09:02:51;17.70;99.90
43183;DHT22;28802;38.578;-0.066;2023-03-21T09:05:19;17.80;99.90
43183;DHT22;28802;38.578;-0.066;2023-03-21T09:07:45;18.20;99.90
43183;DHT22;28802;38.578;-0.066;2023-03-21T09:10:15;18.40;99.90
43183;DHT22;28802;38.578;-0.066;2023-03-21T09:12:42;18.90;99.90
43183;DHT22;28802;38.578;-0.066;2023-03-21T09:15:09;19.30;99.90
43183;DHT22;28802;38.578;-0.066;2023-03-21T09:17:37;19.30;99.90
43183;DHT22;28802;38.578;-0.066;2023-03-21T09:20:15;19.80;99.90
43183;DHT22;28802;38.578;-0.066;2023-03-21T09:22:47;19.70;99.90
43183;DHT22;28802;38.578;-0.066;2023-03-21T09:25:15;19.90;99.90
43183;DHT22;28802;38.578;-0.066;2023-03-21T09:27:42;19.60;99.90
43183;DHT22;28802;38.578;-0.066;2023-03-21T09:30:16;19.50;99.90
43183;DHT22;28802;38.578;-0.066;2023-03-21T09:32:43;20.30;99.90
43183;DHT22;28802;38.578;-0.066;2023-03-21T09:35:15;20.80;99.90
43183;DHT22;28802;38.578;-0.066;2023-03-21T09:37:44;21.70;99.90
43183;DHT22;28802;38.578;-0.066;2023-03-21T09:40:20;22.60;99.90
43183;DHT22;28802;38.578;-0.066;2023-03-21T09:43:02;23.70;99.90
43183;DHT22;28802;38.578;-0.066;2023-03-21T09:45:42;24.10;99.90
43183;DHT22;28802;38.578;-0.066;2023-03-21T09:52:23;24.30;99.90
43183;DHT22;28802;38.578;-0.066;2023-03-21T09:54:51;24.40;99.90
43183;DHT22;28802;38.578;-0.066;2023-03-21T09:57:28;24.50;99.90
43183;DHT22;28802;38.578;-0.066;2023-03-21T09:59:58;24.50;99.90
43183;DHT22;28802;38.578;-0.066;2023-03-21T10:03:04;23.70;99.90
43183;DHT22;28802;38.578;-0.066;2023-03-21T10:05:41;23.20;99.90
43183;DHT22;28802;38.578;-0.066;2023-03-21T10:08:21;23.50;99.90
43183;DHT22;28802;38.578;-0.066;2023-03-21T10:11:08;23.80;99.90
43183;DHT22;28802;38.578;-0.066;2023-03-21T10:13:42;22.90;99.90
43183;DHT22;28802;38.578;-0.066;2023-03-21T10:16:15;22.50;99.90
43183;DHT22;28802;38.578;-0.066;2023-03-21T10:18:43;23.10;99.90
43183;DHT22;28802;38.578;-0.066;2023-03-21T10:21:24;23.30;99.90
43183;DHT22;28802;38.578;-0.066;2023-03-21T10:23:53;23.70;99.90
43183;DHT22;28802;38.578;-0.066;2023-03-21T10:26:23;24.00;99.90
43183;DHT22;28802;38.578;-0.066;2023-03-21T10:28:51;24.50;99.90
43183;DHT22;28802;38.578;-0.066;2023-03-21T10:31:22;24.30;99.90
43183;DHT22;28802;38.578;-0.066;2023-03-21T10:33:52;24.60;99.90
43183;DHT22;28802;38.578;-0.066;2023-03-21T10:36:30;24.70;99.90
43183;DHT22;28802;38.578;-0.066;2023-03-21T10:39:06;24.80;99.90
43183;DHT22;28802;38.578;-0.066;2023-03-21T10:41:35;24.20;99.90
43183;DHT22;28802;38.578;-0.066;2023-03-21T10:44:15;24.00;99.90
43183;DHT22;28802;38.578;-0.066;2023-03-21T10:47:05;24.30;99.90
43183;DHT22;28802;38.578;-0.066;2023-03-21T10:49:32;24.00;99.90
43183;DHT22;28802;38.578;-0.066;2023-03-21T10:52:02;24.00;99.90
43183;DHT22;28802;38.578;-0.066;2023-03-21T10:54:31;24.40;99.90
43183;DHT22;28802;38.578;-0.066;2023-03-21T10:59:43;23.20;99.90
43183;DHT22;28802;38.578;-0.066;2023-03-21T11:02:33;22.30;99.90
43183;DHT22;28802;38.578;-0.066;2023-03-21T11:05:38;21.80;99.90
43183;DHT22;28802;38.578;-0.066;2023-03-21T11:08:12;21.40;99.90
43183;DHT22;28802;38.578;-0.066;2023-03-21T11:10:50;21.20;99.90
43183;DHT22;28802;38.578;-0.066;2023-03-21T11:13:26;21.20;99.90
43183;DHT22;28802;38.578;-0.066;2023-03-21T11:15:56;21.30;99.90
43183;DHT22;28802;38.578;-0.066;2023-03-21T11:18:25;21.20;99.90
43183;DHT22;28802;38.578;-0.066;2023-03-21T11:21:01;20.90;99.90
43183;DHT22;28802;38.578;-0.066;2023-03-21T11:23:29;21.00;99.90
43183;DHT22;28802;38.578;-0.066;2023-03-21T11:25:59;21.60;99.90
43183;DHT22;28802;38.578;-0.066;2023-03-21T11:28:32;21.40;99.90
43183;DHT22;28802;38.578;-0.066;2023-03-21T11:31:02;21.50;99.90
43183;DHT22;28802;38.578;-0.066;2023-03-21T11:33:38;21.20;99.90
43183;DHT22;28802;38.578;-0.066;2023-03-21T11:36:32;21.20;99.90
43183;DHT22;28802;38.578;-0.066;2023-03-21T11:39:17;22.00;99.90
43183;DHT22;28802;38.578;-0.066;2023-03-21T11:41:50;22.60;99.90
43183;DHT22;28802;38.578;-0.066;2023-03-21T11:44:34;22.90;99.90
43183;DHT22;28802;38.578;-0.066;2023-03-21T11:47:09;22.70;99.90
43183;DHT22;28802;38.578;-0.066;2023-03-21T11:49:35;23.10;99.90
43183;DHT22;28802;38.578;-0.066;2023-03-21T11:58:20;23.10;99.90
43183;DHT22;28802;38.578;-0.066;2023-03-21T12:00:56;22.70;99.90
43183;DHT22;28802;38.578;-0.066;2023-03-21T12:09:20;22.20;99.90
43183;DHT22;28802;38.578;-0.066;2023-03-21T12:17:49;21.30;99.90
43183;DHT22;28802;38.578;-0.066;2023-03-21T12:20:38;20.30;99.90
43183;DHT22;28802;38.578;-0.066;2023-03-21T12:25:54;20.00;99.90
43183;DHT22;28802;38.578;-0.066;2023-03-21T12:42:02;20.90;99.90
43183;DHT22;28802;38.578;-0.066;2023-03-21T12:44:46;20.40;99.90
43183;DHT22;28802;38.578;-0.066;2023-03-21T12:47:22;20.10;99.90
43183;DHT22;28802;38.578;-0.066;2023-03-21T12:52:38;20.90;99.90
43183;DHT22;28802;38.578;-0.066;2023-03-21T12:55:21;21.30;99.90
43183;DHT22;28802;38.578;-0.066;2023-03-21T12:57:52;20.90;99.90
43183;DHT22;28802;38.578;-0.066;2023-03-21T13:02:54;20.40;99.90
43183;DHT22;28802;38.578;-0.066;2023-03-21T13:10:50;20.30;99.90
43183;DHT22;28802;38.578;-0.066;2023-03-21T13:21:50;19.70;99.90
43183;DHT22;28802;38.578;-0.066;2023-03-21T13:27:01;19.50;99.90
43183;DHT22;28802;38.578;-0.066;2023-03-21T13:29:32;19.50;99.90
43183;DHT22;28802;38.578;-0.066;2023-03-21T13:32:27;19.80;99.90
43183;DHT22;28802;38.578;-0.066;2023-03-21T13:37:33;20.00;99.90
43183;DHT22;28802;38.578;-0.066;2023-03-21T13:40:05;20.20;99.90
43183;DHT22;28802;38.578;-0.066;2023-03-21T13:42:43;20.10;99.90
43183;DHT22;28802;38.578;-0.066;2023-03-21T13:45:21;20.10;99.90
43183;DHT22;28802;38.578;-0.066;2023-03-21T13:48:27;20.10;99.90
43183;DHT22;28802;38.578;-0.066;2023-03-21T13:51:03;20.30;99.90
43183;DHT22;28802;38.578;-0.066;2023-03-21T13:53:32;20.30;99.90
43183;DHT22;28802;38.578;-0.066;2023-03-21T13:56:27;20.20;99.90
43183;DHT22;28802;38.578;-0.066;2023-03-21T13:59:01;19.80;99.90
43183;DHT22;28802;38.578;-0.066;2023-03-21T14:01:36;19.70;99.90
43183;DHT22;28802;38.578;-0.066;2023-03-21T14:04:18;19.60;99.90
43183;DHT22;28802;38.578;-0.066;2023-03-21T14:06:57;18.90;99.90
43183;DHT22;28802;38.578;-0.066;2023-03-21T14:09:45;19.00;99.90
43183;DHT22;28802;38.578;-0.066;2023-03-21T14:12:23;19.30;99.90
43183;DHT22;28802;38.578;-0.066;2023-03-21T14:15:37;19.30;99.90
43183;DHT22;28802;38.578;-0.066;2023-03-21T14:17:37;19.30;99.90
43183;DHT22;28802;38.578;-0.066;2023-03-21T14:20:18;19.30;99.90
43183;DHT22;28802;38.578;-0.066;2023-03-21T14:22:46;19.40;99.90
43183;DHT22;28802;38.578;-0.066;2023-03-21T14:25:15;19.10;99.90
43183;DHT22;28802;38.578;-0.066;2023-03-21T14:27:44;18.30;99.90
43183;DHT22;28802;38.578;-0.066;2023-03-21T14:30:25;18.00;99.90
43183;DHT22;28802;38.578;-0.066;2023-03-21T14:33:01;18.20;99.90
43183;DHT22;28802;38.578;-0.066;2023-03-21T14:35:30;18.20;99.90
43183;DHT22;28802;38.578;-0.066;2023-03-21T14:38:00;18.50;99.90
43183;DHT22;28802;38.578;-0.066;2023-03-21T14:40:28;18.70;99.90
43183;DHT22;28802;38.578;-0.066;2023-03-21T14:42:54;18.70;99.90
43183;DHT22;28802;38.578;-0.066;2023-03-21T14:45:24;18.70;99.90
43183;DHT22;28802;38.578;-0.066;2023-03-21T14:50:28;19.10;99.90
43183;DHT22;28802;38.578;-0.066;2023-03-21T14:52:55;19.10;99.90
43183;DHT22;28802;38.578;-0.066;2023-03-21T14:55:22;19.10;99.90
43183;DHT22;28802;38.578;-0.066;2023-03-21T14:57:49;19.10;99.90
43183;DHT22;28802;38.578;-0.066;2023-03-21T15:00:26;19.00;99.90
43183;DHT22;28802;38.578;-0.066;2023-03-21T15:02:54;19.00;99.90
43183;DHT22;28802;38.578;-0.066;2023-03-21T15:05:24;19.00;99.90
43183;DHT22;28802;38.578;-0.066;2023-03-21T15:08:17;19.00;99.90
43183;DHT22;28802;38.578;-0.066;2023-03-21T15:10:52;18.90;99.90
43183;DHT22;28802;38.578;-0.066;2023-03-21T15:13:21;18.80;99.90
43183;DHT22;28802;38.578;-0.066;2023-03-21T15:15:48;18.80;99.90
43183;DHT22;28802;38.578;-0.066;2023-03-21T15:18:23;18.70;99.90
43183;DHT22;28802;38.578;-0.066;2023-03-21T15:20:50;18.60;99.90
43183;DHT22;28802;38.578;-0.066;2023-03-21T15:23:40;18.70;99.90
43183;DHT22;28802;38.578;-0.066;2023-03-21T15:26:16;18.70;99.90
43183;DHT22;28802;38.578;-0.066;2023-03-21T15:28:48;18.60;99.90
43183;DHT22;28802;38.578;-0.066;2023-03-21T15:31:20;18.70;99.90
43183;DHT22;28802;38.578;-0.066;2023-03-21T15:33:48;18.80;99.90
43183;DHT22;28802;38.578;-0.066;2023-03-21T15:36:32;18.80;99.90
43183;DHT22;28802;38.578;-0.066;2023-03-21T15:39:07;18.80;99.90
43183;DHT22;28802;38.578;-0.066;2023-03-21T15:41:34;18.80;99.90
43183;DHT22;28802;38.578;-0.066;2023-03-21T15:44:12;18.50;99.90
43183;DHT22;28802;38.578;-0.066;2023-03-21T15:46:44;18.50;99.90
43183;DHT22;28802;38.578;-0.066;2023-03-21T15:54:33;18.30;99.90
43183;DHT22;28802;38.578;-0.066;2023-03-21T15:57:05;18.40;99.90
43183;DHT22;28802;38.578;-0.066;2023-03-21T15:59:41;18.40;99.90
43183;DHT22;28802;38.578;-0.066;2023-03-21T16:02:19;18.40;99.90
43183;DHT22;28802;38.578;-0.066;2023-03-21T16:05:00;18.40;99.90
43183;DHT22;28802;38.578;-0.066;2023-03-21T16:07:27;18.50;99.90
43183;DHT22;28802;38.578;-0.066;2023-03-21T16:10:00;18.40;99.90
43183;DHT22;28802;38.578;-0.066;2023-03-21T16:12:26;18.10;99.90
43183;DHT22;28802;38.578;-0.066;2023-03-21T16:14:52;18.00;99.90
43183;DHT22;28802;38.578;-0.066;2023-03-21T16:17:33;18.00;99.90
43183;DHT22;28802;38.578;-0.066;2023-03-21T16:20:08;18.00;99.90
43183;DHT22;28802;38.578;-0.066;2023-03-21T16:22:41;17.90;99.90
43183;DHT22;28802;38.578;-0.066;2023-03-21T16:25:07;17.90;99.90
43183;DHT22;28802;38.578;-0.066;2023-03-21T16:27:34;17.90;99.90
43183;DHT22;28802;38.578;-0.066;2023-03-21T16:29:59;17.90;99.90
43183;DHT22;28802;38.578;-0.066;2023-03-21T16:32:28;17.90;99.90
43183;DHT22;28802;38.578;-0.066;2023-03-21T16:34:57;18.00;99.90
43183;DHT22;28802;38.578;-0.066;2023-03-21T16:37:23;18.00;99.90
43183;DHT22;28802;38.578;-0.066;2023-03-21T16:39:49;18.00;99.90
43183;DHT22;28802;38.578;-0.066;2023-03-21T16:42:15;18.10;99.90
43183;DHT22;28802;38.578;-0.066;2023-03-21T16:44:41;18.00;99.90
43183;DHT22;28802;38.578;-0.066;2023-03-21T16:47:18;17.90;99.90
43183;DHT22;28802;38.578;-0.066;2023-03-21T16:49:45;17.80;99.90
43183;DHT22;28802;38.578;-0.066;2023-03-21T16:52:13;17.80;99.90
43183;DHT22;28802;38.578;-0.066;2023-03-21T16:54:40;17.70;99.90
43183;DHT22;28802;38.578;-0.066;2023-03-21T16:57:07;17.70;99.90
43183;DHT22;28802;38.578;-0.066;2023-03-21T16:59:39;17.60;99.90
43183;DHT22;28802;38.578;-0.066;2023-03-21T17:02:14;17.60;99.90
43183;DHT22;28802;38.578;-0.066;2023-03-21T17:04:41;17.60;99.90
43183;DHT22;28802;38.578;-0.066;2023-03-21T17:07:11;17.60;99.90
43183;DHT22;28802;38.578;-0.066;2023-03-21T17:09:41;17.60;99.90
43183;DHT22;28802;38.578;-0.066;2023-03-21T17:12:13;17.50;99.90
43183;DHT22;28802;38.578;-0.066;2023-03-21T17:14:54;17.40;99.90
43183;DHT22;28802;38.578;-0.066;2023-03-21T17:17:20;17.40;99.90
43183;DHT22;28802;38.578;-0.066;2023-03-21T17:19:46;17.40;99.90
43183;DHT22;28802;38.578;-0.066;2023-03-21T17:22:12;17.40;99.90
43183;DHT22;28802;38.578;-0.066;2023-03-21T17:24:38;17.40;99.90